In Rescue
 
Open Full Screen Window  High Contrast Mode
November 25, 2020 5:18 AM EST
Present Weather: Mist
Weather Information
Wind Direction
  ---
Wind Speed
  00 kt (0 mph)
Wind Gust
  00 kt (0 mph)
Altimeter
29.87 in
Visibility
5 SM
Temperature
03° C
37° F
Dewpoint
02° C
36° F
Humidity
93%
1hr Rain Fall
00.00 in.
24hr Rain Fall
00.05 in.
Sky Condition
Overcast @ 2,100 ft
Broken @ 1,500 ft
Broken @ 1,000 ft
MVFR

METAR KISQ 251018Z AUTO 00000KT 5SM BR BKN010 BKN015 OVC021 03/02 A2987 RMK AO2 T00250021

FAA Disclaimer: The data displayed is for advisory purposes only and is not to be used for flight planning or operations.